createdAt,value
2018-11-27T00:01:58.927Z,74.50
2018-11-27T00:12:02.331Z,74.50
2018-11-27T00:22:07.063Z,74.80
2018-11-27T00:32:11.167Z,74.40
2018-11-27T00:42:15.367Z,75.00
2018-11-27T00:52:19.597Z,74.90
2018-11-27T01:02:23.787Z,74.50
2018-11-27T01:12:27.949Z,75.10
2018-11-27T01:22:32.235Z,76.00
2018-11-27T01:32:36.330Z,75.30
2018-11-27T01:42:40.582Z,75.50
2018-11-27T01:52:44.762Z,75.60
2018-11-27T02:02:49.567Z,75.50
2018-11-27T02:12:54.622Z,75.10
2018-11-27T02:22:58.771Z,75.70
2018-11-27T02:33:02.869Z,75.70
2018-11-27T02:43:07.044Z,75.60
2018-11-27T02:53:11.183Z,75.70
2018-11-27T03:03:15.276Z,75.10
2018-11-27T03:13:19.504Z,75.40
2018-11-27T03:23:23.665Z,75.40
2018-11-27T03:33:27.753Z,75.50
2018-11-27T03:43:31.868Z,75.50
2018-11-27T03:53:36.102Z,75.50
2018-11-27T04:03:40.164Z,75.70
2018-11-27T04:13:44.420Z,75.30
2018-11-27T04:23:48.571Z,76.00
2018-11-27T04:33:52.714Z,76.40
2018-11-27T04:43:57.099Z,76.20
2018-11-27T04:54:01.243Z,75.80
2018-11-27T05:04:05.503Z,76.00
2018-11-27T05:14:09.602Z,75.50
2018-11-27T05:24:13.772Z,75.60
2018-11-27T05:34:17.947Z,75.60
2018-11-27T05:44:22.098Z,75.60
2018-11-27T05:54:26.271Z,75.40
2018-11-27T06:04:30.368Z,75.80
2018-11-27T06:14:34.544Z,75.80
2018-11-27T06:24:38.629Z,75.80
2018-11-27T06:34:43.152Z,76.00
2018-11-27T06:44:46.965Z,76.00
2018-11-27T06:54:51.187Z,76.00
2018-11-27T07:04:55.339Z,76.20
2018-11-27T07:14:59.569Z,76.10
2018-11-27T07:25:04.065Z,76.40
2018-11-27T07:35:09.801Z,76.40
2018-11-27T07:45:17.042Z,76.60
2018-11-27T07:55:22.342Z,75.60
2018-11-27T08:05:29.622Z,77.20
2018-11-27T08:15:34.052Z,78.40
2018-11-27T08:25:38.216Z,78.40
2018-11-27T08:35:42.348Z,79.40
2018-11-27T08:45:46.488Z,79.40
2018-11-27T08:55:50.730Z,80.30
2018-11-27T09:05:54.865Z,79.20
2018-11-27T09:15:58.955Z,78.70
2018-11-27T09:26:03.031Z,77.80
2018-11-27T09:36:07.460Z,77.40
2018-11-27T09:46:11.576Z,76.60
2018-11-27T09:56:16.010Z,76.10
2018-11-27T10:06:20.421Z,75.40
2018-11-27T10:16:24.740Z,74.70
2018-11-27T10:26:29.070Z,74.20
2018-11-27T10:36:33.449Z,73.90
2018-11-27T10:46:37.603Z,73.30
2018-11-27T10:56:41.903Z,73.10
2018-11-27T11:06:46.099Z,72.60
2018-11-27T11:16:50.336Z,72.60
2018-11-27T11:26:54.480Z,71.90
2018-11-27T11:36:58.574Z,71.60
2018-11-27T11:47:03.161Z,72.60
2018-11-27T11:57:07.393Z,71.30
2018-11-27T12:07:11.738Z,71.40
2018-11-27T12:17:16.129Z,71.80
2018-11-27T12:27:20.401Z,71.70
2018-11-27T12:37:24.571Z,72.50
2018-11-27T12:47:28.652Z,73.00
2018-11-27T12:57:32.781Z,72.70
2018-11-27T13:07:36.939Z,72.10
2018-11-27T13:17:41.286Z,71.70
2018-11-27T13:27:45.570Z,71.00
2018-11-27T13:37:49.739Z,70.90
2018-11-27T13:47:54.055Z,70.50
2018-11-27T13:57:58.206Z,70.40
2018-11-27T14:08:02.409Z,70.00
2018-11-27T14:18:07.160Z,69.80
2018-11-27T14:28:11.333Z,69.70
2018-11-27T14:38:15.587Z,69.30
2018-11-27T14:48:19.760Z,69.10
2018-11-27T14:58:23.964Z,69.00
2018-11-27T15:08:28.215Z,68.80
2018-11-27T15:18:32.643Z,68.80
2018-11-27T15:28:36.971Z,68.80
2018-11-27T15:38:41.203Z,68.90
2018-11-27T15:48:45.398Z,69.10
2018-11-27T15:58:49.561Z,69.40
2018-11-27T16:08:53.739Z,69.30
2018-11-27T16:18:57.983Z,69.50
2018-11-27T16:29:02.153Z,69.70
2018-11-27T16:39:11.063Z,70.00
2018-11-27T16:49:15.203Z,69.80
2018-11-27T16:59:19.482Z,69.30
2018-11-27T17:09:23.725Z,69.10
2018-11-27T17:19:27.825Z,68.90
2018-11-27T17:29:31.968Z,68.60
2018-11-27T17:39:36.085Z,68.30
2018-11-27T17:49:40.428Z,68.10
2018-11-27T17:59:44.541Z,68.00
2018-11-27T18:09:48.761Z,69.10
2018-11-27T18:19:52.984Z,67.50
2018-11-27T18:29:57.168Z,67.20
2018-11-27T18:40:01.291Z,67.00
2018-11-27T18:50:07.680Z,66.90
2018-11-27T19:00:21.502Z,66.80
2018-11-27T19:10:30.788Z,66.80
2018-11-27T19:20:34.998Z,67.00
2018-11-27T19:30:39.337Z,67.40
2018-11-27T19:40:43.732Z,68.20
2018-11-27T19:50:48.008Z,68.90
2018-11-27T20:00:52.256Z,70.10
2018-11-27T20:10:56.363Z,70.60
2018-11-27T20:21:00.489Z,70.80
2018-11-27T20:31:04.629Z,70.70
2018-11-27T20:41:08.814Z,70.80
2018-11-27T20:51:12.958Z,70.80
2018-11-27T21:01:17.199Z,70.80
2018-11-27T21:11:21.666Z,70.80
2018-11-27T21:21:26.008Z,73.40
2018-11-27T21:31:30.246Z,75.50
2018-11-27T21:41:34.387Z,75.40
2018-11-27T21:51:38.578Z,79.70
2018-11-27T22:01:42.702Z,82.50
2018-11-27T22:11:46.912Z,84.50
2018-11-27T22:21:51.095Z,85.10
2018-11-27T22:31:55.330Z,84.70
2018-11-27T22:41:59.423Z,84.10
2018-11-27T22:52:03.677Z,83.00
2018-11-27T23:02:07.800Z,82.20
2018-11-27T23:12:12.143Z,81.60
2018-11-27T23:22:16.378Z,81.10
2018-11-27T23:32:20.494Z,80.70
2018-11-27T23:42:24.722Z,80.40
2018-11-27T23:52:28.965Z,80.20
